»·PEaware :: 2MAPZ KSNA-KCRQ

2MAPZ :: KSNA-KCRQ

FLIGHT INFORMATION

Flight Status: Arrived
Operator: Unknown
More flights by this operator :: More flights under this callsign
Pilot: J.R. H. (1229)
Aircraft: Unknown
(C90)
More flights by this aircraft type
Origin: KSNA John Wayne-Orange Co
United States
Destination: KCRQ McClellan-Palomar
United States
More flights between these airports :: More routes between these airports
Route: V25 PACIF V208 OCN
File this flight plan on PilotEdge
Remarks:
Altitude:
(Current/Filed)
7,000ft
Speed:
(Current/Filed)
250kts
Departed: 11-Feb-19 12:05 PM
Arrived: 11-Feb-19 12:35 PM
Distance/Time
Traveled:
44nm/0:29
Distance/Time
To Go:
Arrived

Flight Plot

Page will automatically refresh every two minutes.


Map Options




Map Legend


Flown Route
Filed Route
Departure Airport
Arrival Airport
Navaid (VOR, NDB)
Fix

Horizontal Profiles

Position Reports

Time Latitude Longitude Heading Altitude Ground
Speed
11-Feb-19 11:47 33.680335 -117.861588 118 59ft 0kts
11-Feb-19 11:48 33.680335 -117.861588 118 59ft 0kts
11-Feb-19 11:49 33.680335 -117.861588 118 59ft 0kts
11-Feb-19 11:50 33.680335 -117.861588 118 59ft 0kts
11-Feb-19 11:51 33.680335 -117.861588 118 59ft 0kts
11-Feb-19 11:52 33.680335 -117.861588 118 59ft 0kts
11-Feb-19 11:53 33.680335 -117.861588 118 59ft 0kts
11-Feb-19 11:54 33.680460 -117.861674 232 59ft 0kts
11-Feb-19 11:55 33.680460 -117.861674 232 59ft 0kts
11-Feb-19 11:56 33.680459 -117.861674 231 59ft 0kts
11-Feb-19 11:57 33.680152 -117.862319 245 59ft 10kts
11-Feb-19 11:58 33.679865 -117.863470 298 59ft 3kts
11-Feb-19 11:59 33.679873 -117.863487 298 59ft 0kts
11-Feb-19 12:00 33.679873 -117.863487 298 59ft 0kts
11-Feb-19 12:01 33.679873 -117.863487 298 59ft 0kts
11-Feb-19 12:02 33.679873 -117.863487 298 59ft 0kts
11-Feb-19 12:03 33.680598 -117.865697 220 59ft 13kts
11-Feb-19 12:04 33.668773 -117.872741 206 237ft 113kts
11-Feb-19 12:05 33.631396 -117.878917 186 1419ft 145kts
11-Feb-19 12:06 33.588588 -117.882039 187 2263ft 170kts
11-Feb-19 12:07 33.540474 -117.886006 187 3210ft 162kts
11-Feb-19 12:08 33.494862 -117.888827 187 4109ft 162kts
11-Feb-19 12:09 33.448989 -117.891101 187 4934ft 162kts
11-Feb-19 12:10 33.405581 -117.887656 148 5624ft 176kts
11-Feb-19 12:11 33.359958 -117.871333 168 6273ft 170kts
11-Feb-19 12:12 33.331983 -117.820866 127 6858ft 186kts
11-Feb-19 12:13 33.303005 -117.766626 141 6741ft 196kts
11-Feb-19 12:14 33.281076 -117.711525 105 6866ft 180kts
11-Feb-19 12:15 33.272817 -117.651258 104 6790ft 178kts
11-Feb-19 12:16 33.264931 -117.592797 105 6800ft 174kts
11-Feb-19 12:17 33.256987 -117.534866 105 6799ft 173kts
11-Feb-19 12:18 33.249756 -117.476525 98 6753ft 176kts
11-Feb-19 12:19 33.252183 -117.416448 87 6709ft 180kts
11-Feb-19 12:20 33.258619 -117.354102 93 5966ft 202kts
11-Feb-19 12:21 33.258710 -117.285196 93 4836ft 203kts
11-Feb-19 12:22 33.260945 -117.221388 91 4810ft 186kts
11-Feb-19 12:23 33.263081 -117.158371 91 4741ft 193kts
11-Feb-19 12:24 33.264492 -117.087781 92 3835ft 217kts
11-Feb-19 12:25 33.227850 -117.044017 151 3809ft 183kts
11-Feb-19 12:26 33.188193 -117.031226 220 3815ft 140kts
11-Feb-19 12:27 33.163694 -117.063791 256 3838ft 120kts
11-Feb-19 12:28 33.157702 -117.098226 255 3562ft 104kts
11-Feb-19 12:29 33.151826 -117.133775 256 2819ft 106kts
11-Feb-19 12:30 33.146231 -117.168355 255 2173ft 105kts
11-Feb-19 12:31 33.141251 -117.202111 254 1576ft 102kts
11-Feb-19 12:32 33.135126 -117.237846 257 975ft 113kts
11-Feb-19 12:33 33.130257 -117.267992 255 478ft 85kts
11-Feb-19 12:34 33.127670 -117.282361 234 312ft 13kts
11-Feb-19 12:35 33.126957 -117.283167 231 312ft 0kts
11-Feb-19 12:36 33.126334 -117.283190 59 312ft 0kts

Navigation Log

Ident Type
Flight plan parsing failed, navigation log unavailable